CheckWX is a tool to help pilots better visualize weather data.  It is not intended as a substitute for an official pre-flight weather briefing.

16:03:38 UTC

DNAA TAF
Nnamdi Azikiwe International Airport
Abuja, Nigeria
TAF DNAA 240940Z 2412/2518 28003KT 9999 TS SCT007 FEW018CB BECMG 2412/2414 14010KT NSW TEMPO 2414/2418 25006KT

Jun-24@
12:00 UTC

Jun-24 @ 12:00 UTC

Jun-25@
18:00 UTC

Jun-25 @ 18:00 UTC

TAF DNAA 240940Z 2412/2518 28003KT 9999 TS SCT007 FEW018CB
Wind
  • 280° at 3 KTS
Conditions
Thunderstorm
Cloud Levels
  • Scattered at 700' AGL
  • Few at 1,800' AGL

Jun-24@
12:00 UTC

Jun-24 @ 12:00 UTC

Jun-25@
18:00 UTC

Jun-25 @ 18:00 UTC

BECMG 2412/2414 14010KT NSW

Becoming

Becoming Conditions expected by Mon, Jun 24, 2019 @ 14:00 UTC

Wind
  • 140° at 10 KTS
Conditions
No significant weather
Cloud Levels
  • Scattered at 700' AGL
  • Few at 1,800' AGL

Jun-24@
14:00 UTC

Jun-24 @ 14:00 UTC

Jun-24@
18:00 UTC

Jun-24 @ 18:00 UTC

TEMPO 2414/2418 25006KT

Temporary

Temporary Changes expected for less than half the time period

Wind
  • 250° at 6 KTS